createdAt,value
2018-04-06T00:02:02.491Z,3.20
2018-04-06T00:04:30.749Z,2.83
2018-04-06T00:06:59.788Z,2.70
2018-04-06T00:09:28.071Z,2.83
2018-04-06T00:11:57.093Z,2.60
2018-04-06T00:14:25.405Z,3.37
2018-04-06T00:16:54.421Z,2.60
2018-04-06T00:19:22.673Z,2.83
2018-04-06T00:21:50.962Z,2.47
2018-04-06T00:24:19.216Z,2.90
2018-04-06T00:26:48.238Z,2.43
2018-04-06T00:29:16.512Z,2.60
2018-04-06T00:31:44.773Z,2.43
2018-04-06T00:34:13.027Z,2.87
2018-04-06T00:36:41.301Z,2.40
2018-04-06T00:39:10.329Z,3.20
2018-04-06T00:41:38.610Z,3.03
2018-04-06T00:44:06.882Z,3.40
2018-04-06T00:46:35.143Z,4.63
2018-04-06T00:49:03.417Z,4.00
2018-04-06T00:51:32.469Z,4.50
2018-04-06T00:54:00.741Z,3.97
2018-04-06T00:56:29.003Z,3.80
2018-04-06T00:58:57.276Z,3.07
2018-04-06T01:01:25.597Z,2.30
2018-04-06T01:03:54.633Z,2.43
2018-04-06T01:06:22.888Z,2.20
2018-04-06T01:08:51.168Z,2.83
2018-04-06T01:11:19.437Z,3.20
2018-04-06T01:13:48.552Z,3.00
2018-04-06T01:16:16.828Z,2.00
2018-04-06T01:18:45.110Z,2.63
2018-04-06T01:21:13.355Z,2.30
2018-04-06T01:23:42.417Z,2.70
2018-04-06T01:26:10.681Z,2.80
2018-04-06T01:28:38.933Z,3.17
2018-04-06T01:31:07.408Z,3.70
2018-04-06T01:33:35.709Z,3.03
2018-04-06T01:36:04.012Z,2.93
2018-04-06T01:38:33.136Z,3.03
2018-04-06T01:41:01.500Z,3.40
2018-04-06T01:43:29.873Z,3.47
2018-04-06T01:45:58.968Z,2.60
2018-04-06T01:48:28.080Z,3.37
2018-04-06T01:50:57.195Z,3.10
2018-04-06T01:53:25.484Z,3.13
2018-04-06T01:55:53.754Z,2.90
2018-04-06T01:58:22.040Z,4.10
2018-04-06T02:00:50.312Z,3.10
2018-04-06T02:03:18.588Z,3.20
2018-04-06T02:05:46.888Z,2.47
2018-04-06T02:08:15.191Z,2.60
2018-04-06T02:10:43.465Z,2.93
2018-04-06T02:13:11.756Z,2.93
2018-04-06T02:15:40.779Z,3.40
2018-04-06T02:18:09.057Z,2.87
2018-04-06T02:20:37.338Z,2.83
2018-04-06T02:23:05.626Z,2.40
2018-04-06T02:25:34.025Z,2.47
2018-04-06T02:28:02.301Z,2.33
2018-04-06T02:30:30.568Z,2.40
2018-04-06T02:32:58.836Z,2.30
2018-04-06T02:35:27.122Z,2.93
2018-04-06T02:37:55.383Z,2.40
2018-04-06T02:40:23.641Z,2.07
2018-04-06T02:42:51.907Z,2.00
2018-04-06T02:45:20.168Z,2.17
2018-04-06T02:47:49.195Z,2.00
2018-04-06T02:50:17.472Z,2.20
2018-04-06T02:52:45.729Z,2.23
2018-04-06T02:55:13.989Z,3.00
2018-04-06T02:57:43.039Z,3.50
2018-04-06T03:00:11.305Z,2.70
2018-04-06T03:02:39.573Z,2.37
2018-04-06T03:05:07.875Z,2.37
2018-04-06T03:07:36.152Z,1.90
2018-04-06T03:10:04.425Z,2.87
2018-04-06T03:12:32.732Z,2.57
2018-04-06T03:15:01.776Z,2.12
2018-04-06T03:17:30.049Z,1.90
2018-04-06T03:19:58.335Z,2.30
2018-04-06T03:22:26.602Z,2.47
2018-04-06T03:24:54.905Z,2.47
2018-04-06T03:27:23.181Z,2.60
2018-04-06T03:29:51.461Z,1.90
2018-04-06T03:32:19.769Z,2.83
2018-04-06T03:34:48.813Z,2.20
2018-04-06T03:37:17.108Z,2.97
2018-04-06T03:39:45.377Z,2.53
2018-04-06T03:42:13.655Z,2.57
2018-04-06T03:44:41.936Z,1.93
2018-04-06T03:47:10.212Z,2.40
2018-04-06T03:49:38.480Z,2.10
2018-04-06T03:52:06.757Z,1.97
2018-04-06T03:54:35.037Z,2.10
2018-04-06T03:57:03.322Z,1.50
2018-04-06T03:59:31.598Z,1.90
2018-04-06T04:01:59.864Z,2.37
2018-04-06T04:04:29.158Z,1.90
2018-04-06T04:06:57.424Z,2.70
2018-04-06T04:09:25.698Z,2.67
2018-04-06T04:11:54.000Z,2.10
2018-04-06T04:14:22.261Z,1.97
2018-04-06T04:16:50.524Z,2.40
2018-04-06T04:19:18.811Z,2.50
2018-04-06T04:21:47.081Z,2.70
2018-04-06T04:24:15.346Z,2.13
2018-04-06T04:26:43.650Z,3.08
2018-04-06T04:29:11.930Z,2.67
2018-04-06T04:31:40.208Z,2.80
2018-04-06T04:34:08.498Z,2.83
2018-04-06T04:36:36.765Z,2.20
2018-04-06T04:39:05.941Z,2.73
2018-04-06T04:41:34.232Z,2.30
2018-04-06T04:44:02.498Z,2.13
2018-04-06T04:46:30.776Z,3.00
2018-04-06T04:48:59.061Z,2.73
2018-04-06T04:51:27.327Z,2.70
2018-04-06T04:53:55.608Z,2.33
2018-04-06T04:56:23.877Z,2.70
2018-04-06T04:58:52.160Z,2.60
2018-04-06T05:01:20.449Z,2.87
2018-04-06T05:03:48.792Z,2.50
2018-04-06T05:06:17.157Z,2.25
2018-04-06T05:08:45.506Z,2.67
2018-04-06T05:11:14.633Z,2.20
2018-04-06T05:13:42.927Z,2.90
2018-04-06T05:16:11.193Z,3.20
2018-04-06T05:18:39.456Z,2.53
2018-04-06T05:21:07.769Z,2.70
2018-04-06T05:23:36.040Z,3.10
2018-04-06T05:26:04.348Z,2.90
2018-04-06T05:28:32.624Z,2.80
2018-04-06T05:31:00.914Z,3.53
2018-04-06T05:33:29.965Z,4.50
2018-04-06T05:35:58.228Z,3.77
2018-04-06T05:38:26.505Z,3.83
2018-04-06T05:40:54.785Z,3.22
2018-04-06T05:43:23.041Z,3.10
2018-04-06T05:45:51.323Z,2.60
2018-04-06T05:48:19.580Z,2.57
2018-04-06T05:50:48.605Z,2.60
2018-04-06T05:53:16.880Z,3.97
2018-04-06T05:55:45.161Z,3.50
2018-04-06T05:58:13.432Z,2.30
2018-04-06T06:00:41.706Z,2.65
2018-04-06T06:03:09.957Z,2.63
2018-04-06T06:05:38.219Z,2.50
2018-04-06T06:08:07.249Z,3.10
2018-04-06T06:10:35.500Z,2.70
2018-04-06T06:13:03.779Z,2.77
2018-04-06T06:15:32.045Z,3.63
2018-04-06T06:18:01.076Z,4.67
2018-04-06T06:20:29.348Z,2.73
2018-04-06T06:22:57.637Z,3.67
2018-04-06T06:25:25.890Z,3.97
2018-04-06T06:27:54.176Z,3.27
2018-04-06T06:30:22.442Z,3.57
2018-04-06T06:32:50.744Z,3.10
2018-04-06T06:35:19.008Z,3.40
2018-04-06T06:37:47.278Z,2.67
2018-04-06T06:40:15.557Z,2.20
2018-04-06T06:42:43.810Z,2.77
2018-04-06T06:45:12.876Z,2.80
2018-04-06T06:47:41.148Z,2.17
2018-04-06T06:50:10.916Z,2.10
2018-04-06T06:52:39.187Z,2.60
2018-04-06T06:55:07.445Z,3.65
2018-04-06T06:57:36.517Z,2.63
2018-04-06T07:00:04.774Z,2.60
2018-04-06T07:02:33.024Z,2.30
2018-04-06T07:05:01.302Z,3.43
2018-04-06T07:07:29.572Z,2.50
2018-04-06T07:09:57.833Z,2.70
2018-04-06T07:12:26.333Z,2.53
2018-04-06T07:14:54.661Z,3.30
2018-04-06T07:17:23.680Z,2.60
2018-04-06T07:19:51.948Z,2.10
2018-04-06T07:22:20.202Z,2.60
2018-04-06T07:24:49.293Z,3.12
2018-04-06T07:27:18.319Z,2.70
2018-04-06T07:29:46.605Z,2.80
2018-04-06T07:32:14.881Z,2.67
2018-04-06T07:34:43.145Z,3.37
2018-04-06T07:37:11.412Z,3.57
2018-04-06T07:39:41.688Z,3.20
2018-04-06T07:42:09.950Z,4.30
2018-04-06T07:44:38.239Z,3.23
2018-04-06T07:47:06.516Z,3.20
2018-04-06T07:49:34.771Z,3.83
2018-04-06T07:52:03.033Z,3.50
2018-04-06T07:54:31.320Z,2.80
2018-04-06T07:56:59.628Z,2.93
2018-04-06T07:59:27.846Z,4.87
2018-04-06T08:01:56.885Z,3.10
2018-04-06T08:04:25.140Z,2.80
2018-04-06T08:06:53.405Z,2.97
2018-04-06T08:09:21.687Z,3.30
2018-04-06T08:11:49.956Z,3.13
2018-04-06T08:14:18.212Z,3.33
2018-04-06T08:16:47.336Z,2.70
2018-04-06T08:19:15.580Z,2.53
2018-04-06T08:21:44.612Z,2.60
2018-04-06T08:24:12.948Z,3.07
2018-04-06T08:26:41.976Z,2.77
2018-04-06T08:29:10.226Z,2.53
2018-04-06T08:31:39.350Z,3.30
2018-04-06T08:34:07.596Z,2.53
2018-04-06T08:36:36.623Z,2.00
2018-04-06T08:39:04.894Z,1.17
2018-04-06T08:41:33.153Z,2.10
2018-04-06T08:44:01.459Z,2.17
2018-04-06T08:46:29.717Z,1.70
2018-04-06T08:48:57.979Z,1.27
2018-04-06T08:51:26.256Z,1.77
2018-04-06T08:53:54.508Z,1.50
2018-04-06T08:56:22.782Z,1.60
2018-04-06T08:58:51.026Z,1.57
2018-04-06T09:01:19.285Z,1.30
2018-04-06T09:03:47.552Z,1.60
2018-04-06T09:06:15.826Z,1.67
2018-04-06T09:08:44.080Z,1.10
2018-04-06T09:11:13.126Z,1.00
2018-04-06T09:13:41.377Z,1.70
2018-04-06T09:16:09.640Z,1.37
2018-04-06T09:18:37.904Z,1.50
2018-04-06T09:21:06.936Z,1.50
2018-04-06T09:23:35.184Z,1.30
2018-04-06T09:26:03.465Z,4.05
2018-04-06T09:28:31.717Z,1.23
2018-04-06T09:31:00.738Z,0.97
2018-04-06T09:33:29.047Z,1.33
2018-04-06T09:35:57.309Z,2.37
2018-04-06T09:38:25.570Z,1.70
2018-04-06T09:40:53.844Z,1.43
2018-04-06T09:43:22.089Z,1.40
2018-04-06T09:45:51.156Z,0.90
2018-04-06T09:48:19.433Z,1.30
2018-04-06T09:50:47.701Z,1.00
2018-04-06T09:53:15.973Z,0.70
2018-04-06T09:55:44.257Z,0.80
2018-04-06T09:58:12.548Z,0.77
2018-04-06T10:00:40.813Z,1.23
2018-04-06T10:03:09.103Z,0.87
2018-04-06T10:05:38.893Z,1.00
2018-04-06T10:08:07.184Z,0.90
2018-04-06T10:10:35.465Z,1.03
2018-04-06T10:13:03.726Z,1.40
2018-04-06T10:15:32.001Z,0.93
2018-04-06T10:18:00.315Z,0.67
2018-04-06T10:20:29.345Z,0.80
2018-04-06T10:22:57.617Z,0.60
2018-04-06T10:25:25.901Z,0.77
2018-04-06T10:27:54.160Z,0.63
2018-04-06T10:30:22.424Z,1.43
2018-04-06T10:32:50.700Z,1.60
2018-04-06T10:35:18.971Z,1.10
2018-04-06T10:37:48.040Z,0.83
2018-04-06T10:40:17.828Z,1.93
2018-04-06T10:42:46.092Z,1.20
2018-04-06T10:45:14.379Z,0.80
2018-04-06T10:47:42.640Z,1.00
2018-04-06T10:50:10.902Z,0.80
2018-04-06T10:52:39.177Z,0.80
2018-04-06T10:55:07.445Z,1.20
2018-04-06T10:57:35.779Z,1.20
2018-04-06T11:00:04.041Z,0.65
2018-04-06T11:02:32.300Z,0.63
2018-04-06T11:05:00.584Z,0.50
2018-04-06T11:07:28.852Z,0.50
2018-04-06T11:09:57.131Z,0.67
2018-04-06T11:12:25.392Z,0.50
2018-04-06T11:14:53.676Z,1.10
2018-04-06T11:17:21.963Z,0.60
2018-04-06T11:19:50.232Z,0.70
2018-04-06T11:22:18.509Z,0.80
2018-04-06T11:24:46.780Z,0.63
2018-04-06T11:27:15.088Z,0.83
2018-04-06T11:29:43.342Z,0.67
2018-04-06T11:32:11.620Z,0.70
2018-04-06T11:34:39.914Z,0.60
2018-04-06T11:37:08.196Z,1.33
2018-04-06T11:39:36.456Z,0.70
2018-04-06T11:42:04.733Z,0.60
2018-04-06T11:44:33.014Z,0.70
2018-04-06T11:47:01.273Z,0.67
2018-04-06T11:49:29.556Z,0.67
2018-04-06T11:51:57.836Z,0.67
2018-04-06T11:54:26.113Z,1.20
2018-04-06T11:56:54.397Z,1.25
2018-04-06T11:59:22.665Z,0.70
2018-04-06T12:01:50.944Z,1.00
2018-04-06T12:04:19.216Z,0.90
2018-04-06T12:06:47.528Z,0.90
2018-04-06T12:09:16.557Z,0.97
2018-04-06T12:11:44.820Z,0.80
2018-04-06T12:14:13.096Z,0.70
2018-04-06T12:16:41.372Z,1.20
2018-04-06T12:19:09.660Z,0.70
2018-04-06T12:21:37.920Z,0.77
2018-04-06T12:24:06.188Z,1.10
2018-04-06T12:26:35.237Z,0.60
2018-04-06T12:29:03.503Z,0.80
2018-04-06T12:31:31.792Z,0.60
2018-04-06T12:34:00.059Z,0.50
2018-04-06T12:36:28.416Z,0.83
2018-04-06T12:38:56.694Z,0.50
2018-04-06T12:41:24.980Z,0.70
2018-04-06T12:43:53.257Z,0.83
2018-04-06T12:46:21.532Z,0.50
2018-04-06T12:48:49.864Z,1.20
2018-04-06T12:51:18.088Z,0.70
2018-04-06T12:53:46.361Z,1.03
2018-04-06T12:56:14.679Z,0.80
2018-04-06T12:58:42.944Z,1.00
2018-04-06T13:01:11.237Z,0.77
2018-04-06T13:03:39.492Z,0.60
2018-04-06T13:06:07.816Z,0.90
2018-04-06T13:08:36.089Z,0.70
2018-04-06T13:11:05.142Z,0.63
2018-04-06T13:13:33.396Z,0.60
2018-04-06T13:16:01.766Z,0.70
2018-04-06T13:18:30.065Z,0.80
2018-04-06T13:20:58.353Z,0.50
2018-04-06T13:23:26.636Z,0.73
2018-04-06T13:25:54.974Z,0.93
2018-04-06T13:28:23.257Z,1.00
2018-04-06T13:30:51.536Z,0.50
2018-04-06T13:33:19.813Z,1.30
2018-04-06T13:35:48.096Z,0.87
2018-04-06T13:38:16.354Z,0.70
2018-04-06T13:40:44.725Z,1.10
2018-04-06T13:43:12.983Z,0.80
2018-04-06T13:45:41.286Z,0.90
2018-04-06T13:48:09.548Z,1.17
2018-04-06T13:50:37.822Z,0.80
2018-04-06T13:53:06.096Z,0.73
2018-04-06T13:55:34.356Z,0.93
2018-04-06T13:58:03.409Z,0.80
2018-04-06T14:00:31.673Z,0.80
2018-04-06T14:02:59.948Z,0.70
2018-04-06T14:05:28.235Z,0.80
2018-04-06T14:07:56.529Z,1.23
2018-04-06T14:10:24.808Z,0.73
2018-04-06T14:12:54.568Z,0.67
2018-04-06T14:15:22.828Z,0.83
2018-04-06T14:17:51.108Z,1.10
2018-04-06T14:20:19.373Z,0.80
2018-04-06T14:22:48.422Z,0.67
2018-04-06T14:25:16.709Z,0.77
2018-04-06T14:27:44.969Z,0.57
2018-04-06T14:30:13.249Z,0.63
2018-04-06T14:32:41.514Z,0.70
2018-04-06T14:35:09.802Z,0.80
2018-04-06T14:37:38.146Z,0.87
2018-04-06T14:40:06.368Z,0.70
2018-04-06T14:42:34.628Z,0.53
2018-04-06T14:45:02.893Z,0.70
2018-04-06T14:47:31.195Z,0.60
2018-04-06T14:49:59.533Z,0.60
2018-04-06T14:52:27.804Z,0.80
2018-04-06T14:54:56.078Z,0.60
2018-04-06T14:57:24.359Z,0.50
2018-04-06T14:59:52.705Z,0.60
2018-04-06T15:02:21.733Z,0.57
2018-04-06T15:04:50.016Z,0.60
2018-04-06T15:07:18.307Z,0.43
2018-04-06T15:09:46.576Z,0.60
2018-04-06T15:12:14.837Z,0.70
2018-04-06T15:14:43.113Z,1.00
2018-04-06T15:17:11.405Z,0.60
2018-04-06T15:19:39.677Z,0.80
2018-04-06T15:22:07.960Z,1.20
2018-04-06T15:24:36.295Z,0.90
2018-04-06T15:27:04.512Z,1.20
2018-04-06T15:29:32.792Z,0.80
2018-04-06T15:32:01.069Z,0.60
2018-04-06T15:34:29.345Z,0.90
2018-04-06T15:36:57.631Z,0.70
2018-04-06T15:39:25.908Z,0.80
2018-04-06T15:41:54.194Z,0.63
2018-04-06T15:44:22.474Z,0.70
2018-04-06T15:46:50.769Z,0.65
2018-04-06T15:49:19.796Z,0.70
2018-04-06T15:51:48.074Z,0.90
2018-04-06T15:54:16.364Z,0.80
2018-04-06T15:56:45.487Z,0.80
2018-04-06T15:59:13.773Z,0.73
2018-04-06T16:01:42.042Z,0.80
2018-04-06T16:04:10.300Z,0.70
2018-04-06T16:06:38.576Z,0.67
2018-04-06T16:09:06.850Z,1.10
2018-04-06T16:11:35.143Z,0.70
2018-04-06T16:14:03.405Z,1.17
2018-04-06T16:16:31.681Z,1.08
2018-04-06T16:18:59.962Z,1.10
2018-04-06T16:21:28.228Z,0.80
2018-04-06T16:23:56.500Z,0.90
2018-04-06T16:26:24.793Z,1.07
2018-04-06T16:28:53.062Z,0.80
2018-04-06T16:31:21.353Z,0.60
2018-04-06T16:33:49.618Z,0.97
2018-04-06T16:36:17.882Z,0.90
2018-04-06T16:38:46.152Z,1.10
2018-04-06T16:41:14.450Z,1.23
2018-04-06T16:43:42.799Z,1.20
2018-04-06T16:46:11.065Z,1.10
2018-04-06T16:48:39.354Z,1.03
2018-04-06T16:51:07.649Z,1.33
2018-04-06T16:53:35.930Z,0.70
2018-04-06T16:56:04.220Z,0.70
2018-04-06T16:58:33.244Z,0.67
2018-04-06T17:01:02.305Z,0.80
2018-04-06T17:03:30.562Z,0.70
2018-04-06T17:05:58.825Z,0.80
2018-04-06T17:08:27.101Z,1.60
2018-04-06T17:10:55.372Z,0.60
2018-04-06T17:13:23.660Z,1.10
2018-04-06T17:15:51.930Z,0.90
2018-04-06T17:18:20.193Z,0.90
2018-04-06T17:20:48.477Z,0.93
2018-04-06T17:23:16.741Z,1.20
2018-04-06T17:25:45.132Z,0.67
2018-04-06T17:28:13.395Z,0.70
2018-04-06T17:30:41.665Z,1.00
2018-04-06T17:33:09.940Z,0.87
2018-04-06T17:35:38.218Z,0.80
2018-04-06T17:38:06.508Z,1.33
2018-04-06T17:40:34.770Z,0.77
2018-04-06T17:43:03.057Z,1.17
2018-04-06T17:45:31.374Z,1.00
2018-04-06T17:47:59.636Z,1.10
2018-04-06T17:50:27.925Z,1.17
2018-04-06T17:52:56.185Z,0.80
2018-04-06T17:55:24.465Z,1.00
2018-04-06T17:57:52.768Z,1.37
2018-04-06T18:00:21.022Z,1.60
2018-04-06T18:02:49.319Z,1.30
2018-04-06T18:05:17.608Z,1.30
2018-04-06T18:07:46.648Z,1.50
2018-04-06T18:10:14.928Z,1.13
2018-04-06T18:12:43.196Z,1.60
2018-04-06T18:15:11.477Z,0.97
2018-04-06T18:17:39.769Z,1.10
2018-04-06T18:20:08.050Z,1.77
2018-04-06T18:22:36.320Z,2.03
2018-04-06T18:25:04.592Z,1.20
2018-04-06T18:27:32.880Z,1.20
2018-04-06T18:30:01.210Z,1.30
2018-04-06T18:32:29.773Z,1.27
2018-04-06T18:34:58.398Z,1.60
2018-04-06T18:37:27.185Z,3.13
2018-04-06T18:39:57.003Z,1.97
2018-04-06T18:42:26.608Z,1.67
2018-04-06T18:44:57.477Z,2.00
2018-04-06T18:47:27.518Z,1.67
2018-04-06T18:49:57.528Z,1.60
2018-04-06T18:52:27.522Z,1.47
2018-04-06T18:54:57.332Z,1.40
2018-04-06T18:57:27.313Z,1.23
2018-04-06T18:59:57.896Z,1.77
2018-04-06T19:02:27.816Z,1.97
2018-04-06T19:04:57.887Z,2.10
2018-04-06T19:07:27.917Z,2.07
2018-04-06T19:09:57.879Z,3.10
2018-04-06T19:12:27.623Z,2.73
2018-04-06T19:14:58.668Z,2.00
2018-04-06T19:17:28.515Z,1.90
2018-04-06T19:19:58.425Z,2.20
2018-04-06T19:22:28.403Z,1.80
2018-04-06T19:24:58.561Z,1.93
2018-04-06T19:27:28.684Z,2.10
2018-04-06T19:29:58.796Z,2.23
2018-04-06T19:32:28.740Z,2.97
2018-04-06T19:34:58.812Z,2.97
2018-04-06T19:37:28.798Z,2.90
2018-04-06T19:40:00.363Z,3.03
2018-04-06T19:42:31.084Z,2.67
2018-04-06T19:45:01.935Z,2.53
2018-04-06T19:47:31.833Z,2.60
2018-04-06T19:50:02.770Z,2.70
2018-04-06T19:52:32.919Z,3.30
2018-04-06T19:55:03.061Z,3.37
2018-04-06T19:57:33.036Z,3.20
2018-04-06T20:00:04.180Z,2.70
2018-04-06T20:02:35.353Z,2.20
2018-04-06T20:05:05.314Z,1.90
2018-04-06T20:07:35.150Z,2.30
2018-04-06T20:10:05.960Z,2.30
2018-04-06T20:12:36.025Z,2.47
2018-04-06T20:15:06.844Z,2.77
2018-04-06T20:17:37.603Z,2.70
2018-04-06T20:20:08.589Z,2.58
2018-04-06T20:22:38.630Z,2.73
2018-04-06T20:25:09.110Z,2.95
2018-04-06T20:27:39.443Z,2.80
2018-04-06T20:30:09.317Z,2.40
2018-04-06T20:32:39.306Z,2.17
2018-04-06T20:35:10.693Z,2.33
2018-04-06T20:37:40.909Z,2.43
2018-04-06T20:40:11.572Z,1.60
2018-04-06T20:42:41.666Z,1.80
2018-04-06T20:45:11.294Z,1.75
2018-04-06T20:47:41.563Z,3.90
2018-04-06T20:50:11.078Z,1.40
2018-04-06T20:52:40.507Z,0.77
2018-04-06T20:55:09.954Z,1.00
2018-04-06T20:57:40.139Z,1.00
2018-04-06T21:00:10.227Z,1.20
2018-04-06T21:02:41.190Z,1.37
2018-04-06T21:05:10.999Z,1.57
2018-04-06T21:07:41.075Z,1.30
2018-04-06T21:10:11.821Z,1.70
2018-04-06T21:12:42.660Z,1.10
2018-04-06T21:15:13.889Z,1.30
2018-04-06T21:17:43.968Z,1.50
2018-04-06T21:20:13.605Z,1.40
2018-04-06T21:22:43.731Z,1.60
2018-04-06T21:25:13.744Z,1.90
2018-04-06T21:27:43.883Z,1.77
2018-04-06T21:30:13.472Z,1.50
2018-04-06T21:32:43.380Z,1.30
2018-04-06T21:35:12.977Z,1.50
2018-04-06T21:37:41.388Z,1.47
2018-04-06T21:40:10.007Z,1.20
2018-04-06T21:42:38.463Z,1.50
2018-04-06T21:45:06.940Z,1.27
2018-04-06T21:47:35.292Z,2.00
2018-04-06T21:50:04.581Z,1.60
2018-04-06T21:52:33.722Z,1.10
2018-04-06T21:55:02.038Z,1.47
2018-04-06T21:57:30.336Z,1.60
2018-04-06T21:59:58.591Z,1.67
2018-04-06T22:02:26.884Z,1.40
2018-04-06T22:04:55.891Z,1.50
2018-04-06T22:07:24.177Z,1.60
2018-04-06T22:09:53.200Z,1.40
2018-04-06T22:12:21.480Z,1.50
2018-04-06T22:14:49.755Z,1.60
2018-04-06T22:17:18.016Z,1.37
2018-04-06T22:19:46.295Z,1.63
2018-04-06T22:22:14.561Z,1.60
2018-04-06T22:24:43.614Z,1.80
2018-04-06T22:27:11.875Z,1.50
2018-04-06T22:29:40.148Z,1.77
2018-04-06T22:32:08.408Z,1.65
2018-04-06T22:34:36.679Z,1.47
2018-04-06T22:37:04.957Z,1.70
2018-04-06T22:39:33.229Z,1.50
2018-04-06T22:42:01.504Z,2.00
2018-04-06T22:44:29.748Z,2.00
2018-04-06T22:46:58.787Z,2.10
2018-04-06T22:49:27.064Z,2.30
2018-04-06T22:51:55.322Z,2.03
2018-04-06T22:54:23.612Z,2.80
2018-04-06T22:56:51.868Z,3.00
2018-04-06T22:59:20.140Z,2.63
2018-04-06T23:01:48.423Z,2.50
2018-04-06T23:04:16.703Z,2.10
2018-04-06T23:06:44.975Z,1.20
2018-04-06T23:09:13.249Z,1.70
2018-04-06T23:11:41.643Z,1.90
2018-04-06T23:14:09.888Z,1.90
2018-04-06T23:16:38.925Z,1.90
2018-04-06T23:19:07.177Z,1.77
2018-04-06T23:21:35.469Z,1.40
2018-04-06T23:24:03.720Z,1.80
2018-04-06T23:26:32.748Z,1.40
2018-04-06T23:29:01.010Z,1.20
2018-04-06T23:31:29.283Z,1.60
2018-04-06T23:33:57.533Z,1.50
2018-04-06T23:36:26.574Z,1.60
2018-04-06T23:38:54.826Z,1.50
2018-04-06T23:41:23.109Z,1.90
2018-04-06T23:43:51.381Z,1.70
2018-04-06T23:46:19.639Z,1.70
2018-04-06T23:48:48.655Z,1.60
2018-04-06T23:51:16.928Z,1.90
2018-04-06T23:53:45.205Z,1.70
2018-04-06T23:56:13.457Z,1.87
2018-04-06T23:58:42.473Z,2.23
